Portada
METAR-TAF:

METAR-TAF

Aeropuertos :

Aeropuerto de Salamanca

Salamanca, España

latitud: 40-57N, longitud: 005-30W, altitud: 793 m

Observación

El informe se hizo hace 31 minutos, a las 11:30 UTC
Viento 4 kt con dirección variable
Temperatura 25°C
Humedad 50%
Presión 1020 hPa
Visibilidad 10 km o más
Nubes dispersas a una altura de 4000 ft

METAR: LESA 041130Z VRB04KT 9999 SCT040 25/14 Q1020

Hora: 14:01 (12:01 UTC)

Pronóstico

El informe se hizo hace 4 horas y 1 minutos, a las 08:00 UTC
Pronóstico válido del 04 a las 09 UTC al 05 a las 09 UTC
Viento 8 kt del oeste-noroeste
Visibilidad 10 km o más
Escasas nubes a una altura de 2500 ft
Probabilidad 30% :
Temporalmente
del 04 a las 09 UTC al 04 a las 10 UTC
Nubes dispersas a una altura de 2000 ft
Evolucionando progresivamente
del 04 a las 21 UTC al 04 a las 22 UTC
Viento 5 kt del oeste

TAF: LESA 040800Z 0409/0509 29008KT 9999 FEW025 TX28/0415Z TN14/0506Z PROB30 TEMPO 0409/0410 SCT020 BECMG 0421/0422 28005KT

Observaciones y pronósticos meteorológicos de más de 4000 aeropuertos (mensajes METAR y TAF).

Los puntos amarillos y rojos representan las estaciones disponibles.

Ponga el ratón en el punto deseado para ver el nombre de la estación.

Haga clic para ver las observaciones y los pronósticos meteorológicos.

Para cambiar el mapa : haga clic en los botones verdes con una cruz de color negro para hacer un zoom, en el botón verde con un guión para alejar o en las flechas verdes para mapas adyacentes.


METAR-TAF: